Time;durP1;ratioP1;P1;durP2;ratioP2;P2;SDS_P1;SDS_P2;PMS_P1;PMS_P2;Temp;Humidity;BMP_temperature;BMP_pressure;BME280_temperature;BME280_humidity;BME280_pressure;Samples;Min_cycle;Max_cycle;Signal;HPM_P1;HPM_P2
2021/07/21 00:00:18;;;;;;;;;;;;;;;27.63;48.53;100984.56;5077347;28;1193;-71
2021/07/21 00:02:45;;;;;;;;;;;;;;;27.63;47.12;100978.41;5068343;28;712;-71
2021/07/21 00:05:13;;;;;;;;;;;;;;;27.62;46.00;100974.88;5079492;28;1307;-71
2021/07/21 00:07:40;;;;;;;;;;;;;;;27.63;47.47;100981.88;5088781;28;842;-70
2021/07/21 00:10:08;;;;;;;;;;;;;;;27.63;47.68;100971.19;5088473;28;1965;-70
2021/07/21 00:15:21;;;;;;;;;;;;;;;27.66;47.14;100964.72;5088545;28;1394;-70
2021/07/21 00:17:57;;;;;;;;;;;;;;;27.65;47.73;100965.72;5070430;28;732;-70
2021/07/21 00:20:24;;;;;;;;;;;;;;;27.63;48.97;100963.16;5079742;28;1287;-71
2021/07/21 00:22:51;;;;;;;;;;;;;;;27.65;49.27;100974.59;5088206;28;1048;-71
2021/07/21 00:25:17;;;;;;;;;;;;;;;27.67;49.69;100972.59;5088227;28;1334;-70
2021/07/21 00:27:45;;;;;;;;;;;;;;;27.63;50.27;100973.84;5087884;28;1187;-70
2021/07/21 00:30:13;;;;;;;;;;;;;;;27.64;49.71;100959.50;5070075;28;1914;-71
2021/07/21 00:32:40;;;;;;;;;;;;;;;27.61;50.04;100958.94;5088406;28;1080;-70
2021/07/21 00:35:07;;;;;;;;;;;;;;;27.56;49.74;100948.66;5105526;28;1318;-70
2021/07/21 00:37:34;;;;;;;;;;;;;;;27.59;50.27;100951.06;5094582;28;1105;-70
2021/07/21 00:40:03;;;;;;;;;;;;;;;27.61;49.92;100935.69;5094910;28;1246;-70
2021/07/21 00:42:30;;;;;;;;;;;;;;;27.63;49.44;100940.94;5078323;28;850;-70
2021/07/21 00:44:56;;;;;;;;;;;;;;;27.61;50.01;100943.72;5074126;28;1279;-70
2021/07/21 00:47:23;;;;;;;;;;;;;;;27.58;48.98;100927.94;5091720;28;1359;-71
2021/07/21 00:49:50;;;;;;;;;;;;;;;27.54;48.44;100921.19;5072670;28;1918;-70
2021/07/21 00:52:17;;;;;;;;;;;;;;;27.56;48.41;100916.56;5091778;28;868;-70
2021/07/21 00:54:45;;;;;;;;;;;;;;;27.60;48.45;100914.44;5091293;28;1184;-70
2021/07/21 00:57:12;;;;;;;;;;;;;;;27.60;48.33;100914.44;5091739;28;1059;-71
2021/07/21 00:59:39;;;;;;;;;;;;;;;27.58;48.46;100911.91;5091366;28;1326;-71
2021/07/21 01:02:06;;;;;;;;;;;;;;;27.60;48.50;100899.22;5091688;28;852;-71
2021/07/21 01:04:33;;;;;;;;;;;;;;;27.58;48.62;100889.66;5091574;28;1226;-71
2021/07/21 01:07:01;;;;;;;;;;;;;;;27.47;46.40;100885.28;5073016;28;906;-70
2021/07/21 01:09:28;;;;;;;;;;;;;;;27.46;45.43;100867.53;5072891;28;1957;-71
2021/07/21 01:11:57;;;;;;;;;;;;;;;27.51;47.35;100861.78;5091596;28;768;-70
2021/07/21 01:14:27;;;;;;;;;;;;;;;27.49;47.49;100847.69;5091313;28;1346;-70
2021/07/21 01:17:06;;;;;;;;;;;;;;;27.49;48.62;100835.16;5072829;28;802;-71
2021/07/21 01:19:51;;;;;;;;;;;;;;;27.46;46.26;100829.25;5090983;28;1321;-71
2021/07/21 01:22:23;;;;;;;;;;;;;;;27.37;46.10;100854.97;5090856;28;1048;-70
2021/07/21 01:24:49;;;;;;;;;;;;;;;27.43;46.46;100866.97;5090701;28;1363;-71
2021/07/21 01:27:22;;;;;;;;;;;;;;;27.46;48.26;100858.66;5092175;28;805;-70
2021/07/21 01:29:53;;;;;;;;;;;;;;;27.48;47.12;100857.53;5057653;28;1984;-70
2021/07/21 01:32:23;;;;;;;;;;;;;;;27.51;47.38;100861.78;5090756;28;1127;-70
2021/07/21 01:34:51;;;;;;;;;;;;;;;27.46;47.82;100859.50;5090576;28;1363;-70
2021/07/21 01:37:19;;;;;;;;;;;;;;;27.42;47.70;100857.25;5090662;28;1130;-70
2021/07/21 01:39:47;;;;;;;;;;;;;;;27.39;46.30;100853.00;5090872;28;1245;-70
2021/07/21 01:42:15;;;;;;;;;;;;;;;27.41;47.15;100844.84;5072217;28;1137;-70
2021/07/21 01:44:43;;;;;;;;;;;;;;;27.40;46.50;100849.34;5090404;28;1325;-71
2021/07/21 01:47:11;;;;;;;;;;;;;;;27.44;46.34;100833.91;5089547;28;1481;-71
2021/07/21 01:49:39;;;;;;;;;;;;;;;27.46;48.18;100832.75;5090690;28;1988;-70
2021/07/21 01:52:08;;;;;;;;;;;;;;;27.44;47.28;100856.16;5090749;28;1075;-70
2021/07/21 01:54:37;;;;;;;;;;;;;;;27.46;46.49;100859.50;5090556;28;1291;-70
2021/07/21 01:57:04;;;;;;;;;;;;;;;27.41;46.51;100848.38;5090507;28;1238;-70
2021/07/21 01:59:32;;;;;;;;;;;;;;;27.45;47.42;100849.78;5090588;28;1231;-70
2021/07/21 02:02:00;;;;;;;;;;;;;;;27.48;48.17;100849.50;5090417;28;1143;-70
2021/07/21 02:04:28;;;;;;;;;;;;;;;27.47;47.67;100855.88;5090262;28;1221;-70
2021/07/21 02:06:55;;;;;;;;;;;;;;;27.47;48.31;100847.00;5090471;28;727;-70
2021/07/21 02:09:23;;;;;;;;;;;;;;;27.47;49.05;100839.81;5090406;28;1998;-70
2021/07/21 02:11:49;;;;;;;;;;;;;;;27.45;47.94;100825.72;5090274;28;873;-70
2021/07/21 02:14:17;;;;;;;;;;;;;;;27.41;48.69;100812.75;5072054;28;1348;-70
2021/07/21 02:16:44;;;;;;;;;;;;;;;27.44;49.32;100813.34;5089975;28;1072;-70
2021/07/21 02:19:11;;;;;;;;;;;;;;;27.45;47.66;100814.19;5089797;28;1221;-70
2021/07/21 02:21:39;;;;;;;;;;;;;;;27.48;48.25;100811.25;5089899;28;1123;-70
2021/07/21 02:24:07;;;;;;;;;;;;;;;27.47;47.87;100796.16;5090104;28;1223;-70
2021/07/21 02:26:38;;;;;;;;;;;;;;;27.49;48.86;100795.03;5089970;28;778;-70
2021/07/21 02:29:05;;;;;;;;;;;;;;;27.47;48.67;100806.88;5071509;28;2001;-70
2021/07/21 02:31:36;;;;;;;;;;;;;;;27.45;48.25;100819.53;5089652;28;1064;-70
2021/07/21 02:34:03;;;;;;;;;;;;;;;27.50;48.99;100842.22;5089874;28;1268;-70
2021/07/21 02:36:31;;;;;;;;;;;;;;;27.46;49.43;100856.84;5089923;28;819;-70
2021/07/21 02:38:59;;;;;;;;;;;;;;;27.46;49.02;100869.38;5089319;28;1228;-70
2021/07/21 02:41:26;;;;;;;;;;;;;;;27.47;48.78;100863.03;5089473;28;1216;-70
2021/07/21 02:43:53;;;;;;;;;;;;;;;27.45;48.79;100867.69;5088723;28;1216;-70
2021/07/21 02:46:19;;;;;;;;;;;;;;;27.47;49.10;100879.09;5089377;28;1107;-70
2021/07/21 02:48:46;;;;;;;;;;;;;;;27.46;50.21;100872.03;5089370;28;1526;-70
2021/07/21 02:51:32;;;;;;;;;;;;;;;27.49;50.05;100867.25;5089937;28;1910;-69
2021/07/21 02:54:27;;;;;;;;;;;;;;;27.49;49.71;100859.22;5088339;28;1306;-70
2021/07/21 02:57:02;;;;;;;;;;;;;;;27.50;50.12;100846.72;5070496;28;1380;-70
2021/07/21 02:59:41;;;;;;;;;;;;;;;27.48;49.99;100849.50;5089234;28;1216;-70
2021/07/21 03:02:07;;;;;;;;;;;;;;;27.47;50.52;100855.00;5054547;28;1327;-70
2021/07/21 03:04:35;;;;;;;;;;;;;;;27.44;50.23;100863.31;5089226;28;1308;-70
2021/07/21 03:07:03;;;;;;;;;;;;;;;27.44;50.02;100866.84;5089500;28;1000;-70
2021/07/21 03:09:30;;;;;;;;;;;;;;;27.41;49.57;100856.41;5089204;28;1913;-70
2021/07/21 03:11:58;;;;;;;;;;;;;;;27.42;49.99;100847.41;5071329;28;1036;-70
2021/07/21 03:14:25;;;;;;;;;;;;;;;27.43;48.98;100849.09;5089166;28;1259;-70
2021/07/21 03:16:53;;;;;;;;;;;;;;;27.42;49.53;100863.44;5088909;28;909;-70
2021/07/21 03:19:24;;;;;;;;;;;;;;;27.35;48.26;100859.63;5089100;28;1208;-70
2021/07/21 03:21:52;;;;;;;;;;;;;;;27.34;48.89;100851.72;5089231;28;1107;-70
2021/07/21 03:24:23;;;;;;;;;;;;;;;27.34;49.40;100844.56;5088730;28;1323;-71
2021/07/21 03:26:50;;;;;;;;;;;;;;;27.34;47.91;100849.91;5069857;28;1738;-70
2021/07/21 03:29:19;;;;;;;;;;;;;;;27.34;47.83;100855.25;5087763;28;1898;-70
2021/07/21 03:31:46;;;;;;;;;;;;;;;27.39;48.26;100855.66;5087865;28;727;-70
2021/07/21 03:34:13;;;;;;;;;;;;;;;27.40;46.39;100843.16;5088294;28;1216;-70
2021/07/21 03:36:44;;;;;;;;;;;;;;;27.40;46.94;100849.34;5088812;28;786;-70
2021/07/21 03:39:11;;;;;;;;;;;;;;;27.38;46.76;100870.06;5088762;28;1212;-70
2021/07/21 03:41:38;;;;;;;;;;;;;;;27.34;46.77;100876.66;5088624;28;1123;-70
2021/07/21 03:44:08;;;;;;;;;;;;;;;27.38;48.00;100861.19;5088303;28;1227;-70
2021/07/21 03:46:39;;;;;;;;;;;;;;;27.36;47.21;100868.50;5087901;28;778;-70
2021/07/21 03:49:06;;;;;;;;;;;;;;;27.41;48.20;100882.28;5088492;28;1937;-70
2021/07/21 03:51:37;;;;;;;;;;;;;;;27.37;47.68;100879.06;5070262;28;1263;-69
2021/07/21 03:54:08;;;;;;;;;;;;;;;27.38;48.16;100878.06;5088209;28;1220;-70
2021/07/21 03:56:39;;;;;;;;;;;;;;;27.35;47.21;100877.50;5070549;28;976;-70
2021/07/21 03:59:07;;;;;;;;;;;;;;;27.33;47.91;100876.81;5088557;28;1224;-70
2021/07/21 04:01:35;;;;;;;;;;;;;;;27.30;48.52;100882.44;5070171;28;1266;-70
2021/07/21 04:04:02;;;;;;;;;;;;;;;27.30;47.41;100885.94;5088569;28;1232;-70
2021/07/21 04:06:31;;;;;;;;;;;;;;;27.30;48.27;100888.59;5070256;28;1131;-70
2021/07/21 04:09:02;;;;;;;;;;;;;;;27.33;47.66;100885.66;5088302;28;1239;-70
2021/07/21 04:11:29;;;;;;;;;;;;;;;27.31;47.42;100892.97;5092534;28;1917;-69
2021/07/21 04:13:56;;;;;;;;;;;;;;;27.27;47.12;100885.41;5092388;28;1277;-70
2021/07/21 04:16:23;;;;;;;;;;;;;;;27.27;47.20;100899.59;5092238;28;1080;-70
2021/07/21 04:18:50;;;;;;;;;;;;;;;27.28;47.98;100893.25;5092267;28;1248;-69
2021/07/21 04:21:17;;;;;;;;;;;;;;;27.28;47.69;100893.25;5092461;28;1144;-69
2021/07/21 04:23:44;;;;;;;;;;;;;;;27.28;47.52;100897.75;5092023;28;1331;-69
2021/07/21 04:26:11;;;;;;;;;;;;;;;27.29;47.80;100905.66;5092500;28;1191;-69
2021/07/21 04:28:38;;;;;;;;;;;;;;;27.33;46.91;100906.22;5091884;28;1315;-70
2021/07/21 04:31:05;;;;;;;;;;;;;;;27.31;47.61;100914.38;5092353;28;1909;-71
2021/07/21 04:33:32;;;;;;;;;;;;;;;27.34;47.83;100914.09;5092104;28;1289;-71
2021/07/21 04:36:00;;;;;;;;;;;;;;;27.31;47.77;100916.19;5092133;28;1180;-70
2021/07/21 04:38:28;;;;;;;;;;;;;;;27.32;47.06;100921.44;5091945;28;1228;-71
2021/07/21 04:40:55;;;;;;;;;;;;;;;27.32;47.52;100923.25;5092005;28;907;-70
2021/07/21 04:43:22;;;;;;;;;;;;;;;27.31;47.44;100929.56;5089896;28;1284;-70
2021/07/21 04:45:50;;;;;;;;;;;;;;;27.29;47.00;100935.06;5091341;28;1308;-71
2021/07/21 04:48:17;;;;;;;;;;;;;;;27.26;47.66;100931.84;5071566;28;1580;-71
2021/07/21 04:50:45;;;;;;;;;;;;;;;27.29;48.25;100935.06;5072251;28;1906;-70
2021/07/21 04:53:12;;;;;;;;;;;;;;;27.24;47.54;100937.31;5073660;28;1291;-70
2021/07/21 04:55:40;;;;;;;;;;;;;;;27.23;48.51;100943.66;5091227;28;1529;-71
2021/07/21 04:58:07;;;;;;;;;;;;;;;27.28;47.85;100928.03;5091357;28;1166;-70
2021/07/21 05:00:35;;;;;;;;;;;;;;;27.28;48.18;100938.72;5091772;28;1145;-70
2021/07/21 05:03:06;;;;;;;;;;;;;;;27.24;48.54;100934.63;5091261;28;797;-71
2021/07/21 05:05:37;;;;;;;;;;;;;;;27.30;48.90;100936.75;5091648;28;1280;-71
2021/07/21 05:08:05;;;;;;;;;;;;;;;27.29;48.91;100944.94;5091350;28;802;-70
2021/07/21 05:10:33;;;;;;;;;;;;;;;27.25;49.13;100941.69;5091720;28;1914;-71
2021/07/21 05:13:00;;;;;;;;;;;;;;;27.25;48.80;100948.84;5091467;28;960;-71
2021/07/21 05:15:28;;;;;;;;;;;;;;;27.27;49.45;100947.72;5088035;28;1310;-70
2021/07/21 05:17:54;;;;;;;;;;;;;;;27.26;49.19;100954.06;5064223;28;1858;-71
2021/07/21 05:20:21;;;;;;;;;;;;;;;27.22;49.68;100954.47;5070748;28;1209;-71
2021/07/21 05:22:48;;;;;;;;;;;;;;;27.19;49.33;100958.28;5072014;28;1130;-71
2021/07/21 05:25:15;;;;;;;;;;;;;;;27.25;49.62;100956.88;5071388;28;1284;-71
2021/07/21 05:27:41;;;;;;;;;;;;;;;27.23;49.47;100954.34;5090492;28;1213;-70
2021/07/21 05:30:09;;;;;;;;;;;;;;;27.22;49.81;100952.66;5090372;28;1983;-71
2021/07/21 05:32:35;;;;;;;;;;;;;;;27.22;49.70;100963.34;5056179;28;1335;-71
2021/07/21 05:35:02;;;;;;;;;;;;;;;27.23;49.90;100965.03;5089475;28;1225;-70
2021/07/21 05:37:30;;;;;;;;;;;;;;;27.22;50.14;100971.38;5073006;28;1073;-70
2021/07/21 05:39:57;;;;;;;;;;;;;;;27.16;50.35;100979.94;5090547;28;1231;-70
2021/07/21 05:42:23;;;;;;;;;;;;;;;27.13;50.39;100980.22;5089642;28;1360;-70
2021/07/21 05:44:50;;;;;;;;;;;;;;;27.17;50.19;100978.13;5083017;28;1228;-71
2021/07/21 05:47:17;;;;;;;;;;;;;;;27.18;50.26;100983.31;5093578;28;1653;-69
2021/07/21 05:49:43;;;;;;;;;;;;;;;27.16;50.75;100985.28;5074178;28;2005;-69
2021/07/21 05:52:10;;;;;;;;;;;;;;;27.17;50.52;100987.00;5097044;28;1037;-69
2021/07/21 05:54:39;;;;;;;;;;;;;;;27.15;50.74;100992.47;5113920;28;1244;-70
2021/07/21 05:57:06;;;;;;;;;;;;;;;27.17;50.99;101003.03;5100622;28;963;-69
2021/07/21 05:59:34;;;;;;;;;;;;;;;27.19;51.09;101003.72;5108331;28;1275;-68
2021/07/21 06:02:00;;;;;;;;;;;;;;;27.20;51.48;101005.44;5106178;28;1161;-70
2021/07/21 06:04:27;;;;;;;;;;;;;;;27.13;51.63;101001.59;5092478;28;1284;-68
2021/07/21 06:06:54;;;;;;;;;;;;;;;27.20;51.70;101002.75;5090660;28;1221;-67
2021/07/21 06:09:21;;;;;;;;;;;;;;;27.12;51.74;101007.91;5097674;28;1315;-68
2021/07/21 06:11:48;;;;;;;;;;;;;;;27.18;51.58;101015.41;5079572;28;1941;-68
2021/07/21 06:14:14;;;;;;;;;;;;;;;27.15;51.85;101015.66;5090700;28;1328;-66
2021/07/21 06:16:41;;;;;;;;;;;;;;;27.19;51.32;101017.09;5104221;28;1541;-67
2021/07/21 06:19:08;;;;;;;;;;;;;;;27.24;51.54;101024.72;5077862;28;1350;-67
2021/07/21 06:21:35;;;;;;;;;;;;;;;27.27;51.25;101025.28;5068756;28;849;-67
2021/07/21 06:24:02;;;;;;;;;;;;;;;27.27;51.24;101029.81;5068499;28;1734;-66
2021/07/21 06:26:29;;;;;;;;;;;;;;;27.26;51.54;101034.31;5084279;28;1455;-67
2021/07/21 06:28:55;;;;;;;;;;;;;;;27.25;51.46;101032.59;5093410;28;1388;-66
2021/07/21 06:31:22;;;;;;;;;;;;;;;27.29;51.61;101025.16;5087848;28;1914;-69
2021/07/21 06:33:49;;;;;;;;;;;;;;;27.19;51.62;101035.81;5087027;28;1267;-71
2021/07/21 06:36:16;;;;;;;;;;;;;;;27.14;51.62;101038.06;5087742;28;1212;-67
2021/07/21 06:38:42;;;;;;;;;;;;;;;27.24;51.39;101041.59;5069785;28;1253;-68
2021/07/21 06:41:09;;;;;;;;;;;;;;;27.25;51.26;101048.66;5069708;28;1398;-68
2021/07/21 06:43:36;;;;;;;;;;;;;;;27.29;51.30;101042.06;5087765;28;1359;-68
2021/07/21 06:46:03;;;;;;;;;;;;;;;27.31;51.12;101053.47;5088440;28;1265;-68
2021/07/21 06:48:29;;;;;;;;;;;;;;;27.25;51.36;101058.50;5088671;28;1330;-69
2021/07/21 06:50:56;;;;;;;;;;;;;;;27.30;51.23;101061.63;5088790;28;1914;-71
2021/07/21 06:53:23;;;;;;;;;;;;;;;27.30;50.98;101062.47;5088798;28;1337;-74
2021/07/21 06:55:50;;;;;;;;;;;;;;;27.33;51.12;101062.19;5088209;28;1633;-72
2021/07/21 06:58:16;;;;;;;;;;;;;;;27.28;51.18;101059.06;5088052;28;1247;-71
2021/07/21 07:00:45;;;;;;;;;;;;;;;27.32;51.21;101055.16;5069989;28;1072;-71
2021/07/21 07:03:12;;;;;;;;;;;;;;;27.31;51.00;101063.31;5071274;28;1229;-69
2021/07/21 07:05:39;;;;;;;;;;;;;;;27.35;50.99;101067.41;5088153;28;1114;-67
2021/07/21 07:08:05;;;;;;;;;;;;;;;27.32;50.86;101071.22;5070011;28;2207;-67
2021/07/21 07:10:32;;;;;;;;;;;;;;;27.35;50.95;101070.09;5087812;28;1906;-66
2021/07/21 07:12:59;;;;;;;;;;;;;;;27.36;50.86;101069.13;5088569;28;1209;-66
2021/07/21 07:15:26;;;;;;;;;;;;;;;27.33;50.24;101080.09;5087678;28;1275;-67
2021/07/21 07:17:53;;;;;;;;;;;;;;;27.34;50.80;101068.38;5070591;28;1217;-68
2021/07/21 07:20:19;;;;;;;;;;;;;;;27.39;50.32;101075.03;5088301;28;1362;-68
2021/07/21 07:22:46;;;;;;;;;;;;;;;27.39;50.55;101076.88;5088176;28;1129;-68
2021/07/21 07:25:13;;;;;;;;;;;;;;;27.39;50.31;101080.38;5094945;28;1278;-66
2021/07/21 07:27:40;;;;;;;;;;;;;;;27.38;50.25;101078.69;5088075;28;1066;-67
2021/07/21 07:30:10;;;;;;;;;;;;;;;27.40;50.18;101079.41;5067819;28;1914;-70
2021/07/21 07:32:37;;;;;;;;;;;;;;;27.41;50.33;101081.09;5080744;28;1150;-69
2021/07/21 07:35:04;;;;;;;;;;;;;;;27.45;50.41;101087.06;5088373;28;1242;-64
2021/07/21 07:37:32;;;;;;;;;;;;;;;27.44;50.24;101085.38;5086165;28;1016;-67
2021/07/21 07:39:58;;;;;;;;;;;;;;;27.46;50.38;101086.91;5087741;28;1310;-69
2021/07/21 07:42:25;;;;;;;;;;;;;;;27.46;50.22;101084.25;5092869;28;1237;-66
2021/07/21 07:44:52;;;;;;;;;;;;;;;27.46;50.29;101078.88;5102420;28;1187;-65
2021/07/21 07:47:18;;;;;;;;;;;;;;;27.50;50.64;101084.81;5097346;28;1070;-67
2021/07/21 07:49:46;;;;;;;;;;;;;;;27.50;50.46;101084.81;5091793;28;1240;-67
2021/07/21 07:52:13;;;;;;;;;;;;;;;27.51;50.69;101087.34;5087706;28;1971;-67
2021/07/21 07:54:40;;;;;;;;;;;;;;;27.52;50.53;101083.69;5068013;28;1276;-66
2021/07/21 07:57:07;;;;;;;;;;;;;;;27.57;50.43;101088.66;5087072;28;1737;-67
2021/07/21 07:59:34;;;;;;;;;;;;;;;27.57;50.74;101081.44;5077923;28;1241;-68
2021/07/21 08:02:01;;;;;;;;;;;;;;;27.57;51.02;101081.44;5086965;28;1007;-65
2021/07/21 08:04:27;;;;;;;;;;;;;;;27.59;50.80;101089.34;5071731;28;1360;-68
2021/07/21 08:06:54;;;;;;;;;;;;;;;27.61;51.49;101090.91;5086694;28;1292;-66
2021/07/21 08:09:21;;;;;;;;;;;;;;;27.61;51.22;101087.38;5086390;28;1291;-67
2021/07/21 08:11:50;;;;;;;;;;;;;;;27.64;51.52;101093.31;5086172;28;1991;-66
2021/07/21 08:14:18;;;;;;;;;;;;;;;27.62;51.37;101081.91;5086554;28;1311;-66
2021/07/21 08:16:49;;;;;;;;;;;;;;;27.62;51.49;101079.22;5085568;28;1094;-66
2021/07/21 08:19:16;;;;;;;;;;;;;;;27.64;51.72;101082.59;5068071;28;1358;-69
2021/07/21 08:21:43;;;;;;;;;;;;;;;27.67;51.96;101092.19;5086802;28;1642;-68
2021/07/21 08:24:10;;;;;;;;;;;;;;;27.66;52.01;101088.66;5066383;28;1321;-65
2021/07/21 08:26:37;;;;;;;;;;;;;;;27.70;52.27;101078.53;5085049;28;1196;-67
2021/07/21 08:29:03;;;;;;;;;;;;;;;27.71;51.99;101088.25;5086956;28;1350;-64
2021/07/21 08:31:30;;;;;;;;;;;;;;;27.71;51.90;101088.25;5067215;28;1942;-64
2021/07/21 08:34:00;;;;;;;;;;;;;;;27.75;52.17;101083.47;5084865;28;1314;-68
2021/07/21 08:36:28;;;;;;;;;;;;;;;27.79;51.94;101079.53;5083809;28;1208;-68
2021/07/21 08:38:55;;;;;;;;;;;;;;;27.80;51.61;101086.59;5081956;28;1350;-67
2021/07/21 08:41:22;;;;;;;;;;;;;;;27.80;51.74;101086.59;5065971;28;1475;-68
2021/07/21 08:43:49;;;;;;;;;;;;;;;27.77;51.77;101086.84;5085205;28;1365;-68
2021/07/21 08:46:16;;;;;;;;;;;;;;;27.80;52.35;101083.91;5085640;28;1177;-67
2021/07/21 08:48:42;;;;;;;;;;;;;;;27.80;53.15;101087.44;5067885;28;1330;-72
2021/07/21 08:51:10;;;;;;;;;;;;;;;27.81;53.90;101085.59;5068242;28;1980;-70
2021/07/21 08:53:37;;;;;;;;;;;;;;;27.84;54.35;101096.88;5067831;28;1287;-70
2021/07/21 08:56:04;;;;;;;;;;;;;;;27.84;55.16;101085.34;5087658;28;1129;-68
2021/07/21 08:58:31;;;;;;;;;;;;;;;27.84;55.16;101091.53;5088903;28;1362;-69
2021/07/21 09:00:58;;;;;;;;;;;;;;;27.82;54.41;101090.81;5087672;28;1173;-69
2021/07/21 09:03:26;;;;;;;;;;;;;;;27.85;55.84;101098.56;5068328;28;1328;-70
2021/07/21 09:05:54;;;;;;;;;;;;;;;27.89;55.60;101091.97;5088720;28;1118;-67
2021/07/21 09:08:21;;;;;;;;;;;;;;;27.88;56.03;101095.59;5088458;28;1288;-68
2021/07/21 09:10:48;;;;;;;;;;;;;;;27.90;55.57;101098.16;5088070;28;2007;-67
2021/07/21 09:13:17;;;;;;;;;;;;;;;27.90;55.15;101092.81;5089289;28;1282;-70
2021/07/21 09:15:48;;;;;;;;;;;;;;;28.00;57.25;101091.81;5067224;28;1168;-71
2021/07/21 09:18:16;;;;;;;;;;;;;;;27.98;56.87;101090.28;5068678;28;1378;-69
2021/07/21 09:20:45;;;;;;;;;;;;;;;27.95;56.73;101086.06;5089505;28;1169;-70
2021/07/21 09:23:13;;;;;;;;;;;;;;;27.97;56.43;101086.75;5090078;28;1301;-70
2021/07/21 09:25:41;;;;;;;;;;;;;;;27.95;57.23;101090.56;5089569;28;1158;-69
2021/07/21 09:28:09;;;;;;;;;;;;;;;27.95;56.66;101093.22;5088684;28;1135;-70
2021/07/21 09:30:38;;;;;;;;;;;;;;;27.95;56.70;101090.56;5088647;28;1918;-71
2021/07/21 09:33:08;;;;;;;;;;;;;;;27.96;57.40;101092.25;5089607;28;1107;-70
2021/07/21 09:35:35;;;;;;;;;;;;;;;27.97;57.04;101096.59;5089980;28;1122;-70
2021/07/21 09:38:07;;;;;;;;;;;;;;;27.99;57.52;101097.34;5089934;28;1122;-71
2021/07/21 09:40:35;;;;;;;;;;;;;;;28.00;58.14;101093.66;5090142;28;1245;-70
2021/07/21 09:43:12;;;;;;;;;;;;;;;27.99;57.78;101097.34;5090186;28;1035;-70
2021/07/21 09:45:41;;;;;;;;;;;;;;;27.99;58.12;101100.00;5088539;28;1110;-70
2021/07/21 09:48:08;;;;;;;;;;;;;;;27.99;57.12;101100.00;5071056;28;1368;-69
2021/07/21 09:50:38;;;;;;;;;;;;;;;27.99;57.15;101102.69;5081636;28;1196;-69
2021/07/21 09:53:07;;;;;;;;;;;;;;;27.99;57.79;101110.72;5089809;28;1094;-69
2021/07/21 09:55:35;;;;;;;;;;;;;;;28.00;57.98;101107.03;5087675;28;1117;-70
2021/07/21 09:58:16;;;;;;;;;;;;;;;28.00;57.71;101099.00;5090088;28;786;-70
2021/07/21 10:00:44;;;;;;;;;;;;;;;27.99;57.58;101102.69;5067783;28;1185;-70
2021/07/21 10:03:19;;;;;;;;;;;;;;;28.02;57.58;101105.94;5079844;28;1459;-70
2021/07/21 10:05:58;;;;;;;;;;;;;;;28.02;57.37;101105.09;5089442;28;1275;-70
2021/07/21 10:08:44;;;;;;;;;;;;;;;28.04;57.00;101113.81;5089569;28;1380;-70
2021/07/21 10:11:23;;;;;;;;;;;;;;;28.03;57.23;101112.13;5089578;28;1902;-70
2021/07/21 10:13:50;;;;;;;;;;;;;;;28.04;57.28;101116.50;5086539;28;1294;-70
2021/07/21 10:16:29;;;;;;;;;;;;;;;28.02;56.72;101113.13;5089941;28;1233;-69
2021/07/21 10:19:01;;;;;;;;;;;;;;;28.03;56.84;101109.44;5088694;28;1291;-71
2021/07/21 10:21:27;;;;;;;;;;;;;;;28.04;56.89;101121.84;5089757;28;1175;-70
2021/07/21 10:23:54;;;;;;;;;;;;;;;28.05;56.49;101112.88;5089072;28;1302;-71
2021/07/21 10:26:21;;;;;;;;;;;;;;;28.04;56.23;101112.03;5089613;28;1177;-69
2021/07/21 10:28:48;;;;;;;;;;;;;;;28.06;56.20;101114.56;5088968;28;1262;-70
2021/07/21 10:31:15;;;;;;;;;;;;;;;28.06;55.90;101117.22;5089944;28;1906;-69
2021/07/21 10:33:42;;;;;;;;;;;;;;;28.07;56.32;101111.75;5088717;28;1435;-69
2021/07/21 10:36:09;;;;;;;;;;;;;;;28.06;56.35;101109.19;5088669;28;1620;-69
2021/07/21 10:38:36;;;;;;;;;;;;;;;28.05;55.96;101116.41;5069449;28;2001;-69
2021/07/21 10:41:06;;;;;;;;;;;;;;;28.06;55.91;101109.19;5089198;28;1216;-70
2021/07/21 10:43:33;;;;;;;;;;;;;;;28.06;55.90;101114.56;5087691;28;1295;-70
2021/07/21 10:46:02;;;;;;;;;;;;;;;28.07;55.58;101109.06;5087620;28;1163;-70
2021/07/21 10:48:52;;;;;;;;;;;;;;;28.09;55.34;101103.56;5070867;28;1508;-69
2021/07/21 10:51:30;;;;;;;;;;;;;;;28.10;55.44;101107.94;5070825;28;1905;-70
2021/07/21 10:54:09;;;;;;;;;;;;;;;28.13;55.28;101121.06;5071091;28;1262;-69
2021/07/21 10:59:41;;;;;;;;;;;;;;;28.10;54.43;101107.94;5089235;28;1854;-70
2021/07/21 11:02:08;;;;;;;;;;;;;;;28.13;54.60;101107.66;5089131;28;1127;-69
2021/07/21 11:04:42;;;;;;;;;;;;;;;28.13;54.81;101108.50;5088891;28;1248;-69
2021/07/21 11:07:10;;;;;;;;;;;;;;;28.15;54.92;101108.34;5088583;28;1076;-69
2021/07/21 11:09:40;;;;;;;;;;;;;;;28.14;54.57;101102.19;5088680;28;1311;-69
2021/07/21 11:12:07;;;;;;;;;;;;;;;28.14;53.67;101102.19;5088881;28;1981;-69
2021/07/21 11:14:34;;;;;;;;;;;;;;;28.12;53.59;101103.28;5088940;28;1337;-70
2021/07/21 11:17:07;;;;;;;;;;;;;;;28.14;53.48;101112.03;5070226;28;1054;-70
2021/07/21 11:19:42;;;;;;;;;;;;;;;28.22;53.47;101109.50;5087098;28;1543;-73
2021/07/21 11:22:18;;;;;;;;;;;;;;;28.15;54.13;101103.84;5088064;28;1188;-68
2021/07/21 11:25:03;;;;;;;;;;;;;;;27.88;53.41;101117.03;5087684;28;1208;-68
2021/07/21 11:27:39;;;;;;;;;;;;;;;27.79;52.11;101106.28;5087749;28;1031;-67
2021/07/21 11:30:26;;;;;;;;;;;;;;;27.61;51.97;101114.13;5083902;28;1248;-74
2021/07/21 11:32:52;;;;;;;;;;;;;;;27.61;52.06;101112.31;5054340;28;1981;-64
2021/07/21 11:35:50;;;;;;;;;;;;;;;27.61;51.97;101108.78;5067535;28;1280;-63
2021/07/21 11:38:20;;;;;;;;;;;;;;;27.52;51.25;101109.59;5072777;28;1314;-61
2021/07/21 11:40:47;;;;;;;;;;;;;;;27.53;51.06;101106.81;5057017;28;1157;-66
2021/07/21 11:43:33;;;;;;;;;;;;;;;27.39;50.57;101098.28;5086035;28;1267;-63
2021/07/21 11:46:04;;;;;;;;;;;;;;;27.46;50.53;101094.94;5086192;28;1352;-66
2021/07/21 11:48:32;;;;;;;;;;;;;;;27.39;50.27;101101.78;5086195;28;1379;-63
2021/07/21 11:51:00;;;;;;;;;;;;;;;27.34;50.05;101089.78;5086547;28;1195;-70
2021/07/21 11:53:26;;;;;;;;;;;;;;;27.32;50.37;101081.06;5067183;28;1914;-66
2021/07/21 11:55:53;;;;;;;;;;;;;;;27.31;49.96;101087.38;5074853;28;1169;-71
2021/07/21 11:58:20;;;;;;;;;;;;;;;27.29;49.14;101100.06;5085304;28;1307;-70
2021/07/21 12:00:48;;;;;;;;;;;;;;;27.20;48.73;101096.34;5067880;28;1024;-70
2021/07/21 12:03:19;;;;;;;;;;;;;;;27.07;48.75;101098.41;5085361;28;1311;-71
2021/07/21 12:05:54;;;;;;;;;;;;;;;27.07;48.68;101093.91;5085424;28;1268;-69
2021/07/21 12:08:21;;;;;;;;;;;;;;;27.04;48.13;101094.16;5050281;28;1291;-73
2021/07/21 12:10:48;;;;;;;;;;;;;;;26.96;48.08;101088.59;5086012;28;1169;-68
2021/07/21 12:13:15;;;;;;;;;;;;;;;26.84;48.63;101089.66;5088726;28;1901;-76
2021/07/21 12:15:42;;;;;;;;;;;;;;;26.87;46.87;101085.91;5087448;28;1153;-73
2021/07/21 12:18:13;;;;;;;;;;;;;;;26.92;47.59;101089.88;5088260;28;1353;-72
2021/07/21 12:20:41;;;;;;;;;;;;;;;26.95;47.54;101086.09;5086857;28;1141;-68
2021/07/21 12:23:08;;;;;;;;;;;;;;;26.90;47.52;101080.31;5087122;28;998;-68
2021/07/21 12:25:35;;;;;;;;;;;;;;;26.93;47.21;101080.03;5069339;28;1158;-67
2021/07/21 12:28:02;;;;;;;;;;;;;;;26.97;47.97;101081.44;5087829;28;1126;-68
2021/07/21 12:30:36;;;;;;;;;;;;;;;26.96;47.70;101080.59;5086881;28;1242;-68
2021/07/21 12:33:04;;;;;;;;;;;;;;;26.97;47.19;101078.78;5073090;28;1901;-68
2021/07/21 12:35:32;;;;;;;;;;;;;;;26.87;48.07;101076.03;5091823;28;1213;-68
2021/07/21 12:38:00;;;;;;;;;;;;;;;26.92;47.27;101078.34;5073365;28;967;-66
2021/07/21 12:40:28;;;;;;;;;;;;;;;26.87;47.82;101081.38;5095529;28;1264;-67
2021/07/21 12:42:59;;;;;;;;;;;;;;;26.92;47.23;101083.69;5100110;28;1339;-70
2021/07/21 12:45:28;;;;;;;;;;;;;;;26.89;47.38;101082.13;5097482;28;1369;-70
2021/07/21 12:47:57;;;;;;;;;;;;;;;26.91;47.27;101081.97;5097322;28;1500;-71
2021/07/21 12:50:27;;;;;;;;;;;;;;;26.81;47.16;101075.75;5101520;28;1321;-70
2021/07/21 12:53:02;;;;;;;;;;;;;;;26.87;48.05;101064.53;5093573;28;1913;-67
2021/07/21 12:55:37;;;;;;;;;;;;;;;26.84;47.17;101072.81;5100931;28;1221;-68
2021/07/21 12:58:05;;;;;;;;;;;;;;;26.91;47.31;101069.47;5096149;28;1233;-67
2021/07/21 13:00:33;;;;;;;;;;;;;;;26.85;48.10;101072.66;5080376;28;1526;-68